Time;durP1;ratioP1;P1;durP2;ratioP2;P2;SDS_P1;SDS_P2;PMS_P1;PMS_P2;Temp;Humidity;BMP_temperature;BMP_pressure;BME280_temperature;BME280_humidity;BME280_pressure;Samples;Min_cycle;Max_cycle;Signal;HPM_P1;HPM_P2
2021/12/21 00:02:04;;;;;;;16.70;11.90;;;;;;;1.97;79.97;97144.69;5077087;28;20230;-69
2021/12/21 00:04:31;;;;;;;15.97;11.20;;;;;;;2.04;80.16;97142.59;5079971;28;20577;-69
2021/12/21 00:06:59;;;;;;;13.60;10.40;;;;;;;2.07;80.48;97145.03;5086588;28;20273;-70
2021/12/21 00:09:25;;;;;;;18.50;12.37;;;;;;;1.99;79.08;97142.81;5076066;28;20575;-69
2021/12/21 00:11:52;;;;;;;15.13;11.47;;;;;;;1.97;79.04;97136.00;5077173;28;20524;-70
2021/12/21 00:14:25;;;;;;;15.33;11.33;;;;;;;2.03;79.07;97140.03;5076742;28;20204;-70
2021/12/21 00:17:09;;;;;;;15.97;12.10;;;;;;;1.87;78.79;97140.84;5076788;28;20268;-69
2021/12/21 00:19:48;;;;;;;16.07;12.00;;;;;;;1.87;79.15;97138.25;5083409;28;20629;-68
2021/12/21 00:22:58;;;;;;;14.20;11.67;;;;;;;1.86;79.04;97131.34;5094596;28;20226;-70
2021/12/21 00:25:07;;;;;;;15.13;11.77;;;;;;;1.90;79.30;97126.81;5076013;28;20295;-71
2021/12/21 00:27:33;;;;;;;16.57;12.37;;;;;;;1.82;78.93;97123.75;5080806;28;20216;-71
2021/12/21 00:30:00;;;;;;;15.90;12.37;;;;;;;1.88;79.59;97128.63;5076678;28;20228;-70
2021/12/21 00:32:27;;;;;;;17.43;12.57;;;;;;;1.87;79.24;97125.22;5076203;28;20235;-70
2021/12/21 00:34:54;;;;;;;17.60;12.57;;;;;;;1.92;79.42;97124.94;5082084;28;20538;-69
2021/12/21 00:37:23;;;;;;;16.77;12.73;;;;;;;1.91;79.50;97124.09;5076891;28;20211;-69
2021/12/21 00:39:49;;;;;;;15.73;13.30;;;;;;;1.92;79.00;97125.81;5076451;28;20552;-68
2021/12/21 00:42:16;;;;;;;20.43;13.63;;;;;;;1.92;78.63;97124.94;5076523;28;20205;-68
2021/12/21 00:44:42;;;;;;;15.03;12.70;;;;;;;1.90;78.76;97119.84;5076360;28;20610;-70
2021/12/21 00:47:09;;;;;;;19.07;14.73;;;;;;;1.91;78.84;97121.50;5075757;28;20214;-70
2021/12/21 00:49:36;;;;;;;16.67;13.70;;;;;;;1.95;78.73;97124.78;5090385;28;20236;-69
2021/12/21 00:52:04;;;;;;;15.50;13.30;;;;;;;2.04;78.62;97118.28;5095775;28;20278;-70
2021/12/21 00:54:31;;;;;;;16.83;13.67;;;;;;;2.02;78.35;97120.94;5067202;28;20514;-69
2021/12/21 00:56:58;;;;;;;16.03;12.30;;;;;;;2.09;79.96;97129.31;5075550;28;20208;-70
2021/12/21 00:59:24;;;;;;;13.70;11.13;;;;;;;2.09;78.81;97126.72;5075601;28;20247;-70
2021/12/21 01:01:51;;;;;;;13.17;11.10;;;;;;;2.06;79.71;97121.63;5076024;28;20212;-70
2021/12/21 01:04:22;;;;;;;12.80;10.30;;;;;;;2.11;79.04;97117.88;5077157;28;20213;-71
2021/12/21 01:07:01;;;;;;;14.10;10.80;;;;;;;2.07;78.89;97112.88;5093059;28;20204;-70
2021/12/21 01:09:54;;;;;;;14.30;10.73;;;;;;;1.99;78.97;97116.75;5077213;28;20624;-70
2021/12/21 01:12:35;;;;;;;14.57;10.20;;;;;;;2.00;79.71;97102.78;5075247;28;20213;-71
2021/12/21 01:15:13;;;;;;;14.30;9.93;;;;;;;1.97;79.23;97110.78;5076194;28;20232;-71
2021/12/21 01:17:50;;;;;;;13.97;10.57;;;;;;;1.95;79.44;97111.75;5096187;28;20218;-71
2021/12/21 01:20:28;;;;;;;15.07;10.73;;;;;;;1.88;79.23;97113.84;5095972;28;20549;-69
2021/12/21 01:23:13;;;;;;;16.07;10.20;;;;;;;1.81;79.30;97104.63;5087477;28;20603;-69
2021/12/21 01:25:45;;;;;;;15.17;11.23;;;;;;;1.76;79.78;97108.41;5075577;28;20204;-69
2021/12/21 01:28:19;;;;;;;13.43;9.97;;;;;;;1.76;79.95;97113.63;5078813;28;20326;-68
2021/12/21 01:30:54;;;;;;;12.80;9.70;;;;;;;1.74;80.30;97116.31;5071357;28;20230;-69
2021/12/21 01:33:36;;;;;;;16.77;10.17;;;;;;;1.75;79.78;97102.34;5085336;28;20276;-69
2021/12/21 01:36:07;;;;;;;14.73;10.80;;;;;;;1.74;79.04;97105.88;5096043;28;20265;-68
2021/12/21 01:38:41;;;;;;;14.67;10.47;;;;;;;1.71;79.84;97113.00;5092193;28;20646;-69
2021/12/21 01:41:21;;;;;;;16.27;10.80;;;;;;;1.73;79.94;97106.81;5075862;28;20216;-69
2021/12/21 01:44:00;;;;;;;13.20;10.37;;;;;;;1.76;80.29;97106.66;5075599;28;20593;-70
2021/12/21 01:49:41;;;;;;;13.47;10.40;;;;;;;1.77;79.52;97100.50;5041513;28;20229;-68
2021/12/21 01:52:11;;;;;;;13.53;10.53;;;;;;;1.72;79.64;97097.31;5068730;28;20382;-68
2021/12/21 01:54:38;;;;;;;15.17;10.73;;;;;;;1.72;79.38;97094.69;5070200;28;20207;-69
2021/12/21 01:57:08;;;;;;;15.00;11.27;;;;;;;1.71;79.16;97093.00;5075668;28;20213;-69
2021/12/21 01:59:37;;;;;;;15.83;10.93;;;;;;;1.70;79.71;97093.91;5075570;28;20511;-68
2021/12/21 02:02:04;;;;;;;13.73;10.63;;;;;;;1.67;79.65;97090.63;5075736;28;20227;-69
2021/12/21 02:04:31;;;;;;;15.80;10.77;;;;;;;1.69;79.31;97097.47;5078218;28;20213;-70
2021/12/21 02:06:58;;;;;;;15.10;11.20;;;;;;;1.63;79.46;97102.97;5085785;28;20209;-72
2021/12/21 02:09:30;;;;;;;18.73;11.40;;;;;;;1.64;79.21;97104.66;5075079;28;20215;-70
2021/12/21 02:11:57;;;;;;;13.00;10.97;;;;;;;1.60;79.26;97099.66;5075798;28;20232;-70
2021/12/21 02:14:23;;;;;;;12.87;11.30;;;;;;;1.59;79.33;97098.00;5066425;28;20201;-69
2021/12/21 02:17:01;;;;;;;16.33;11.83;;;;;;;1.63;79.33;97102.16;5075525;28;20536;-69
2021/12/21 02:19:32;;;;;;;15.27;11.67;;;;;;;1.58;79.29;97098.91;5077578;28;20275;-71
2021/12/21 02:22:08;;;;;;;15.33;11.97;;;;;;;1.59;80.24;97096.25;5077130;28;20223;-68
2021/12/21 02:24:42;;;;;;;16.70;11.13;;;;;;;1.64;79.60;97099.44;5078280;28;20261;-69
2021/12/21 02:27:25;;;;;;;15.17;11.50;;;;;;;1.68;79.48;97095.78;5085844;28;20191;-70
2021/12/21 02:29:51;;;;;;;15.13;11.57;;;;;;;1.64;80.40;97091.63;5079522;28;20577;-69
2021/12/21 02:32:18;;;;;;;15.63;12.17;;;;;;;1.63;79.97;97084.72;5089229;28;20203;-70
2021/12/21 02:34:44;;;;;;;19.50;12.70;;;;;;;1.61;79.79;97089.19;5074900;28;20630;-70
2021/12/21 02:37:13;;;;;;;15.23;11.43;;;;;;;1.66;79.82;97081.13;5090843;28;20217;-69
2021/12/21 02:39:39;;;;;;;16.60;12.67;;;;;;;1.63;79.72;97087.31;5110979;28;20202;-69
2021/12/21 02:42:07;;;;;;;14.80;12.20;;;;;;;1.61;79.91;97086.56;5086028;28;20236;-70
2021/12/21 02:44:34;;;;;;;16.23;12.10;;;;;;;1.53;79.55;97083.50;5075372;28;20220;-70
2021/12/21 02:47:00;;;;;;;19.37;13.43;;;;;;;1.59;80.17;97079.75;5076056;28;20199;-71
2021/12/21 02:49:27;;;;;;;16.20;13.00;;;;;;;1.58;79.82;97078.91;5089384;28;20246;-69
2021/12/21 02:51:53;;;;;;;17.37;13.33;;;;;;;1.55;79.52;97081.69;5098818;28;20324;-70
2021/12/21 02:54:21;;;;;;;17.30;13.23;;;;;;;1.67;80.80;97083.66;5077313;28;20210;-70
2021/12/21 02:56:48;;;;;;;19.40;13.77;;;;;;;1.65;79.57;97087.25;5098615;28;20211;-71
2021/12/21 02:59:14;;;;;;;20.17;15.33;;;;;;;1.63;78.80;97079.50;5085556;28;20202;-69
2021/12/21 03:01:41;;;;;;;21.13;15.33;;;;;;;1.65;79.72;97085.50;5078557;28;20238;-70
2021/12/21 03:04:08;;;;;;;18.40;15.17;;;;;;;1.66;78.97;97089.81;5078550;28;20604;-69
2021/12/21 03:09:37;;;;;;;18.43;14.43;;;;;;;1.62;78.21;97079.59;5073955;28;20310;-70
2021/12/21 03:12:26;;;;;;;19.67;13.87;;;;;;;1.63;78.66;97081.28;5070892;28;20197;-69
2021/12/21 03:14:52;;;;;;;17.43;13.77;;;;;;;1.65;78.81;97080.28;5078807;28;20204;-69
2021/12/21 03:17:19;;;;;;;18.77;14.37;;;;;;;1.61;78.47;97081.34;5078215;28;20513;-71
2021/12/21 03:19:46;;;;;;;21.23;14.30;;;;;;;1.69;78.28;97083.59;5080636;28;20235;-68
2021/12/21 03:22:14;;;;;;;16.30;13.57;;;;;;;1.65;78.36;97089.88;5091768;28;20239;-70
2021/12/21 03:24:43;;;;;;;18.63;13.87;;;;;;;1.68;78.12;97090.56;5079587;28;20304;-71
2021/12/21 03:27:12;;;;;;;17.27;14.37;;;;;;;1.66;79.17;97081.97;5081551;28;20223;-71
2021/12/21 03:29:38;;;;;;;19.20;14.50;;;;;;;1.65;78.76;97080.28;5065169;28;20228;-70
2021/12/21 03:32:06;;;;;;;18.43;14.90;;;;;;;1.61;78.49;97076.16;5094383;28;20490;-68
2021/12/21 03:34:32;;;;;;;17.70;13.93;;;;;;;1.59;77.77;97091.03;5097965;28;20612;-71
2021/12/21 03:36:59;;;;;;;16.97;13.97;;;;;;;1.58;78.86;97083.28;5097733;28;20239;-68
2021/12/21 03:39:25;;;;;;;16.90;14.17;;;;;;;1.61;78.00;97086.56;5097933;28;20306;-70
2021/12/21 03:41:55;;;;;;;17.23;14.13;;;;;;;1.65;78.07;97082.91;5097452;28;20222;-70
2021/12/21 03:44:24;;;;;;;21.30;15.37;;;;;;;1.57;78.96;97085.03;5097759;28;20213;-71
2021/12/21 03:46:54;;;;;;;17.77;14.00;;;;;;;1.59;78.25;97091.03;5092530;28;20656;-71
2021/12/21 03:52:10;;;;;;;19.60;15.27;;;;;;;1.53;77.92;97083.50;5093859;28;20253;-68
2021/12/21 03:54:38;;;;;;;17.20;13.50;;;;;;;1.54;78.79;97085.19;5067585;28;20211;-71
2021/12/21 03:57:05;;;;;;;17.23;13.87;;;;;;;1.52;78.39;97084.44;5077050;28;20232;-70
2021/12/21 03:59:33;;;;;;;17.83;14.60;;;;;;;1.45;78.78;97080.47;5076849;28;20220;-70
2021/12/21 04:02:00;;;;;;;17.07;14.50;;;;;;;1.55;78.81;97089.50;5077434;28;20231;-69
2021/12/21 04:04:27;;;;;;;17.30;14.13;;;;;;;1.49;79.00;97090.63;5079151;28;20209;-71
2021/12/21 04:06:54;;;;;;;17.33;14.17;;;;;;;1.45;78.45;97088.28;5087886;28;20209;-69
2021/12/21 04:09:20;;;;;;;18.87;14.80;;;;;;;1.43;78.29;97083.13;5077055;28;20266;-69
2021/12/21 04:11:47;;;;;;;17.93;13.87;;;;;;;1.40;78.35;97085.03;5077807;28;20221;-70
2021/12/21 04:14:16;;;;;;;21.10;14.47;;;;;;;1.44;79.26;97082.22;5079672;28;20216;-69
2021/12/21 04:16:44;;;;;;;18.50;14.80;;;;;;;1.46;78.85;97076.91;5071297;28;20208;-71
2021/12/21 04:19:11;;;;;;;17.17;13.87;;;;;;;1.46;78.85;97076.91;5080163;28;20208;-71
2021/12/21 04:21:37;;;;;;;16.33;14.17;;;;;;;1.44;78.81;97068.34;5088690;28;20238;-69
2021/12/21 04:24:04;;;;;;;18.10;15.43;;;;;;;1.41;78.49;97071.94;5079679;28;20270;-71
2021/12/21 04:26:30;;;;;;;18.43;14.93;;;;;;;1.41;78.59;97069.34;5077266;28;20229;-69
2021/12/21 04:28:57;;;;;;;19.40;14.60;;;;;;;1.35;78.51;97071.38;5096610;28;20618;-71
2021/12/21 04:31:23;;;;;;;17.40;13.77;;;;;;;1.34;78.74;97067.13;5096535;28;20623;-69
2021/12/21 04:33:51;;;;;;;20.03;15.17;;;;;;;1.42;79.55;97064.94;5082817;28;20213;-70
2021/12/21 04:36:18;;;;;;;17.77;14.40;;;;;;;1.39;78.66;97065.97;5074131;28;20210;-69
2021/12/21 04:38:47;;;;;;;17.67;14.80;;;;;;;1.43;79.02;97077.06;5076659;28;20214;-68
2021/12/21 04:41:17;;;;;;;21.53;15.57;;;;;;;1.39;77.86;97078.13;5076566;28;20232;-68
2021/12/21 04:43:44;;;;;;;20.17;16.13;;;;;;;1.37;78.63;97082.59;5076568;28;20228;-69
2021/12/21 04:46:12;;;;;;;19.97;15.73;;;;;;;1.36;78.40;97091.31;5077718;28;20211;-70
2021/12/21 04:48:39;;;;;;;20.13;15.07;;;;;;;1.42;78.78;97093.63;5083009;28;20206;-71
2021/12/21 04:51:07;;;;;;;19.03;14.70;;;;;;;1.38;79.11;97092.13;5096187;28;20198;-71
2021/12/21 04:53:33;;;;;;;20.93;14.67;;;;;;;1.41;78.74;97090.19;5077883;28;20290;-70
2021/12/21 04:56:01;;;;;;;21.70;15.50;;;;;;;1.38;78.71;97089.50;5077425;28;20218;-70
2021/12/21 04:58:27;;;;;;;18.50;14.53;;;;;;;1.39;78.75;97093.78;5099399;28;20229;-69
2021/12/21 05:00:53;;;;;;;19.07;15.10;;;;;;;1.35;78.37;97094.84;5100820;28;20235;-69
2021/12/21 05:03:20;;;;;;;21.60;15.27;;;;;;;1.34;78.96;97098.38;5099758;28;20499;-70
2021/12/21 05:05:46;;;;;;;19.70;14.63;;;;;;;1.31;79.02;97096.75;5101387;28;20307;-68
2021/12/21 05:08:21;;;;;;;18.43;14.70;;;;;;;1.31;78.49;97098.53;5097190;28;20203;-68
2021/12/21 05:10:50;;;;;;;18.47;14.60;;;;;;;1.18;78.77;97100.88;5083345;28;20623;-70
2021/12/21 05:13:18;;;;;;;18.70;14.03;;;;;;;1.22;79.32;97094.63;5091783;28;20275;-69
2021/12/21 05:15:45;;;;;;;18.83;15.40;;;;;;;1.23;78.65;97098.06;5098861;28;20215;-68
2021/12/21 05:18:11;;;;;;;18.17;14.03;;;;;;;1.23;79.49;97098.91;5100171;28;20199;-69
2021/12/21 05:20:39;;;;;;;19.20;15.47;;;;;;;1.22;79.64;97104.19;5098894;28;20204;-69
2021/12/21 05:23:06;;;;;;;17.97;14.30;;;;;;;1.29;79.98;97098.59;5081210;28;20242;-68
2021/12/21 05:25:33;;;;;;;17.63;14.13;;;;;;;1.31;79.21;97101.16;5081392;28;20224;-70
2021/12/21 05:28:00;;;;;;;18.13;15.27;;;;;;;1.27;78.60;97099.59;5086305;28;20223;-70
2021/12/21 05:30:27;;;;;;;19.07;15.43;;;;;;;1.18;78.73;97102.66;5080980;28;20623;-69
2021/12/21 05:32:54;;;;;;;20.23;14.30;;;;;;;1.20;78.88;97104.28;5080356;28;20214;-69
2021/12/21 05:35:22;;;;;;;19.07;14.60;;;;;;;1.14;79.20;97108.91;5068512;28;20645;-71
2021/12/21 05:37:51;;;;;;;18.53;14.27;;;;;;;1.21;79.72;97103.34;5090592;28;20213;-70
2021/12/21 05:40:18;;;;;;;18.27;14.37;;;;;;;1.21;79.20;97102.50;5083226;28;20215;-71
2021/12/21 05:42:48;;;;;;;22.47;16.40;;;;;;;1.23;79.67;97105.88;5079789;28;20682;-69
2021/12/21 05:45:17;;;;;;;18.17;15.33;;;;;;;1.23;79.51;97105.88;5078895;28;20218;-69
2021/12/21 05:47:43;;;;;;;19.87;16.30;;;;;;;1.17;78.82;97111.41;5080644;28;20204;-68
2021/12/21 05:50:14;;;;;;;23.10;16.27;;;;;;;1.24;79.04;97105.78;5096912;28;20252;-70
2021/12/21 05:52:41;;;;;;;23.10;16.10;;;;;;;1.17;78.79;97107.00;5098498;28;20285;-70
2021/12/21 05:55:09;;;;;;;19.93;16.17;;;;;;;1.22;78.44;97112.00;5068935;28;20219;-70
2021/12/21 05:57:37;;;;;;;21.03;15.37;;;;;;;1.18;77.98;97113.91;5075675;28;20208;-68
2021/12/21 06:00:07;;;;;;;18.43;15.30;;;;;;;1.24;77.93;97121.41;5075527;28;20206;-68
2021/12/21 06:02:33;;;;;;;20.67;15.10;;;;;;;1.30;78.68;97125.50;5075752;28;20239;-70
2021/12/21 06:04:59;;;;;;;21.07;15.17;;;;;;;1.30;78.72;97125.50;5083568;28;20518;-69
2021/12/21 06:07:26;;;;;;;17.97;14.80;;;;;;;1.32;77.85;97128.88;5095666;28;20210;-69
2021/12/21 06:09:52;;;;;;;19.00;14.83;;;;;;;1.34;78.82;97127.06;5096089;28;20208;-69
2021/12/21 06:12:33;;;;;;;18.00;14.23;;;;;;;1.24;79.07;97131.03;5094607;28;20211;-71
2021/12/21 06:15:20;;;;;;;18.23;14.97;;;;;;;1.30;78.46;97130.72;5071121;28;20697;-70
2021/12/21 06:23:42;;;;;;;18.20;15.10;;;;;;;1.23;78.82;97134.53;5087131;28;20371;-70
2021/12/21 06:26:10;;;;;;;19.00;14.83;;;;;;;1.23;79.04;97139.75;5079930;28;20511;-71
2021/12/21 06:28:37;;;;;;;18.57;14.27;;;;;;;1.25;79.02;97133.53;5083868;28;20227;-70
2021/12/21 06:31:05;;;;;;;19.43;15.43;;;;;;;1.28;78.77;97132.53;5077986;28;20218;-69
2021/12/21 06:33:33;;;;;;;19.93;15.73;;;;;;;1.30;77.93;97135.94;5076051;28;20231;-72
2021/12/21 06:35:59;;;;;;;19.93;15.37;;;;;;;1.33;78.35;97131.41;5079806;28;20216;-70
2021/12/21 06:38:27;;;;;;;22.30;15.93;;;;;;;1.26;78.23;97123.97;5080238;28;20201;-69
2021/12/21 06:40:54;;;;;;;21.23;15.43;;;;;;;1.24;78.32;97115.41;5079991;28;20230;-71
2021/12/21 06:43:20;;;;;;;19.43;15.60;;;;;;;1.32;79.56;97116.69;5080304;28;20239;-70
2021/12/21 06:45:53;;;;;;;20.80;16.27;;;;;;;1.25;77.87;97117.06;5084432;28;20271;-71
2021/12/21 06:51:16;;;;;;;20.07;15.63;;;;;;;1.26;78.89;97121.38;5105277;28;20267;-70
2021/12/21 06:53:44;;;;;;;19.57;15.53;;;;;;;1.31;78.04;97122.81;5098757;28;20194;-70
2021/12/21 06:56:11;;;;;;;20.73;15.37;;;;;;;1.27;79.17;97121.31;5096223;28;20207;-70
2021/12/21 06:58:37;;;;;;;20.33;16.03;;;;;;;1.35;78.41;97123.50;5070559;28;20201;-69
2021/12/21 07:01:05;;;;;;;18.13;15.27;;;;;;;1.34;78.40;97130.50;5080284;28;20214;-69
2021/12/21 07:03:31;;;;;;;19.47;16.47;;;;;;;1.24;77.27;97136.22;5080321;28;20240;-69
2021/12/21 07:06:01;;;;;;;18.57;15.67;;;;;;;1.21;77.82;97142.41;5093004;28;20207;-71
2021/12/21 07:08:31;;;;;;;19.00;15.20;;;;;;;1.36;78.18;97135.63;5081249;28;20207;-71
2021/12/21 07:11:10;;;;;;;22.30;17.13;;;;;;;1.35;79.00;97139.97;5079796;28;20253;-69
2021/12/21 07:19:05;;;;;;;20.50;15.97;;;;;;;1.32;78.03;97136.69;5069865;28;21117;-68
2021/12/21 07:21:32;;;;;;;21.93;16.20;;;;;;;1.30;77.13;97128.97;5089415;28;20209;-71
2021/12/21 07:24:00;;;;;;;20.57;16.27;;;;;;;1.33;77.47;97136.63;5084575;28;20215;-71
2021/12/21 07:26:27;;;;;;;18.57;15.73;;;;;;;1.32;77.92;97144.50;5078903;28;20542;-70
2021/12/21 07:28:53;;;;;;;21.53;16.47;;;;;;;1.33;77.77;97146.19;5097963;28;20207;-67
2021/12/21 07:31:20;;;;;;;20.77;16.43;;;;;;;1.33;77.77;97140.97;5088268;28;20207;-70
2021/12/21 07:33:46;;;;;;;24.03;17.77;;;;;;;1.36;77.52;97140.81;5077645;28;20207;-71
2021/12/21 07:36:13;;;;;;;23.30;16.83;;;;;;;1.31;77.56;97135.84;5076961;28;20217;-71
2021/12/21 07:38:40;;;;;;;20.40;16.07;;;;;;;1.31;77.05;97133.22;5058736;28;20195;-71
2021/12/21 07:41:07;;;;;;;21.57;16.43;;;;;;;1.31;77.44;97137.63;5078696;28;20534;-70
2021/12/21 07:43:34;;;;;;;20.57;16.07;;;;;;;1.34;77.19;97138.31;5077898;28;20238;-70
2021/12/21 07:46:01;;;;;;;21.33;16.63;;;;;;;1.34;77.88;97132.25;5078485;28;20227;-68
2021/12/21 07:48:27;;;;;;;20.03;16.40;;;;;;;1.37;77.63;97137.31;5082237;28;20205;-71
2021/12/21 07:50:55;;;;;;;20.53;16.07;;;;;;;1.39;77.80;97140.69;5103676;28;20201;-69
2021/12/21 07:53:22;;;;;;;22.27;17.07;;;;;;;1.41;77.58;97141.47;5081465;28;20287;-71
2021/12/21 07:55:49;;;;;;;19.93;15.97;;;;;;;1.42;77.43;97136.16;5057748;28;20207;-68
2021/12/21 07:58:17;;;;;;;20.57;17.23;;;;;;;1.38;77.10;97150.25;5079432;28;20209;-69
2021/12/21 08:00:44;;;;;;;20.90;16.73;;;;;;;1.44;77.68;97149.97;5077925;28;20211;-70
2021/12/21 08:03:15;;;;;;;22.63;15.73;;;;;;;1.44;77.85;97141.31;5079652;28;20235;-69
2021/12/21 08:05:43;;;;;;;21.87;16.43;;;;;;;1.44;77.43;97147.38;5091005;28;20203;-70
2021/12/21 08:08:14;;;;;;;23.07;15.93;;;;;;;1.40;76.96;97147.59;5085794;28;20203;-70
2021/12/21 08:10:44;;;;;;;21.83;16.00;;;;;;;1.48;77.76;97143.69;5084554;28;20214;-70
2021/12/21 08:13:11;;;;;;;21.30;15.57;;;;;;;1.43;77.24;97143.06;5078283;28;20203;-69
2021/12/21 08:15:39;;;;;;;22.70;16.30;;;;;;;1.49;77.25;97147.13;5078268;28;20212;-71
2021/12/21 08:18:06;;;;;;;20.27;15.93;;;;;;;1.49;77.63;97141.91;5086835;28;20203;-68
2021/12/21 08:20:32;;;;;;;21.30;16.20;;;;;;;1.43;77.66;97142.22;5077007;28;20218;-70
2021/12/21 08:22:59;;;;;;;20.97;16.47;;;;;;;1.43;76.36;97143.06;5075197;28;20238;-70
2021/12/21 08:25:26;;;;;;;20.03;15.97;;;;;;;1.39;76.29;97145.88;5077447;28;20208;-69
2021/12/21 08:27:52;;;;;;;22.20;17.00;;;;;;;1.37;77.14;97147.75;5077550;28;20216;-69
2021/12/21 08:30:19;;;;;;;21.27;16.33;;;;;;;1.35;77.39;97139.97;5079833;28;20225;-68
2021/12/21 08:32:47;;;;;;;20.83;15.73;;;;;;;1.35;77.43;97144.34;5089881;28;20216;-70
2021/12/21 08:35:14;;;;;;;20.47;15.67;;;;;;;1.39;77.20;97140.69;5077216;28;20621;-68
2021/12/21 08:37:41;;;;;;;18.53;14.47;;;;;;;1.35;77.83;97139.97;5077924;28;20212;-69
2021/12/21 08:40:10;;;;;;;20.27;14.27;;;;;;;1.33;77.65;97146.19;5077377;28;20534;-69
2021/12/21 08:42:38;;;;;;;17.63;14.83;;;;;;;1.38;77.48;97134.63;5058216;28;20227;-70
2021/12/21 08:45:06;;;;;;;18.00;14.40;;;;;;;1.42;78.78;97135.31;5083588;28;20256;-70
2021/12/21 08:47:33;;;;;;;19.33;15.53;;;;;;;1.41;77.71;97144.06;5087591;28;20247;-67
2021/12/21 08:50:01;;;;;;;20.53;16.23;;;;;;;1.47;78.21;97138.53;5077877;28;20244;-69
2021/12/21 08:52:28;;;;;;;23.90;17.03;;;;;;;1.52;77.67;97143.53;5086569;28;20195;-69
2021/12/21 08:54:54;;;;;;;19.83;15.80;;;;;;;1.54;78.09;97139.94;5077728;28;20245;-70
2021/12/21 08:57:21;;;;;;;25.10;17.77;;;;;;;1.52;77.04;97141.78;5077625;28;20627;-69
2021/12/21 08:59:47;;;;;;;21.97;17.30;;;;;;;1.48;76.29;97137.63;5078313;28;20219;-68
2021/12/21 09:02:14;;;;;;;21.47;16.43;;;;;;;1.55;76.50;97135.56;5065214;28;20243;-70
2021/12/21 09:04:40;;;;;;;23.73;17.77;;;;;;;1.56;75.20;97142.47;5083920;28;20296;-70
2021/12/21 09:07:08;;;;;;;20.40;16.93;;;;;;;1.62;76.48;97135.19;5098727;28;20201;-70
2021/12/21 09:09:35;;;;;;;21.23;16.67;;;;;;;1.68;75.91;97140.09;5079538;28;20210;-69
2021/12/21 09:12:02;;;;;;;21.60;16.77;;;;;;;1.57;74.74;97149.34;5077807;28;20212;-69
2021/12/21 09:14:31;;;;;;;23.10;16.90;;;;;;;1.54;74.82;97147.75;5077991;28;20213;-69
2021/12/21 09:16:58;;;;;;;20.97;17.20;;;;;;;1.60;75.13;97155.25;5078712;28;20213;-69
2021/12/21 09:19:24;;;;;;;22.80;17.23;;;;;;;1.63;75.18;97142.06;5068885;28;20207;-69
2021/12/21 09:21:51;;;;;;;19.83;16.83;;;;;;;1.63;75.34;97154.28;5091560;28;20221;-69
2021/12/21 09:24:19;;;;;;;20.73;16.23;;;;;;;1.61;74.66;97153.50;5081939;28;20212;-70
2021/12/21 09:26:45;;;;;;;22.67;16.83;;;;;;;1.54;74.35;97147.75;5096095;28;20264;-69
2021/12/21 09:29:12;;;;;;;20.77;17.03;;;;;;;1.60;75.83;97150.03;5096396;28;20227;-70
2021/12/21 09:31:38;;;;;;;20.63;16.30;;;;;;;1.55;75.63;97154.66;5077725;28;20210;-69
2021/12/21 09:34:05;;;;;;;20.97;16.33;;;;;;;1.55;75.09;97152.06;5075942;28;20208;-70
2021/12/21 09:36:32;;;;;;;23.47;17.00;;;;;;;1.60;74.87;97150.03;5076867;28;20204;-70
2021/12/21 09:38:59;;;;;;;21.97;16.60;;;;;;;1.56;74.49;97156.31;5089391;28;20204;-70
2021/12/21 09:41:27;;;;;;;22.97;17.63;;;;;;;1.54;74.82;97155.56;5076101;28;20205;-70
2021/12/21 09:43:53;;;;;;;24.37;17.60;;;;;;;1.48;74.59;97150.66;5071724;28;21196;-69
2021/12/21 09:46:20;;;;;;;23.20;17.13;;;;;;;1.62;75.01;97153.44;5068195;28;20207;-70
2021/12/21 09:48:46;;;;;;;22.27;17.23;;;;;;;1.61;73.93;97153.50;5083360;28;20244;-68
2021/12/21 09:51:13;;;;;;;22.17;17.00;;;;;;;1.43;73.84;97158.69;5081923;28;20553;-70
2021/12/21 09:53:39;;;;;;;22.67;16.83;;;;;;;1.48;74.37;97159.34;5082705;28;20197;-69
2021/12/21 09:56:07;;;;;;;21.37;16.30;;;;;;;1.51;74.14;97158.34;5083348;28;20220;-71
2021/12/21 09:58:37;;;;;;;21.80;17.37;;;;;;;1.43;74.23;97157.84;5082234;28;20220;-69
2021/12/21 10:01:04;;;;;;;21.00;16.97;;;;;;;1.51;74.18;97155.72;5078515;28;20532;-70
2021/12/21 10:03:31;;;;;;;22.37;18.13;;;;;;;1.51;74.70;97155.72;5087376;28;20243;-71
2021/12/21 10:06:04;;;;;;;19.80;15.53;;;;;;;1.67;74.01;97153.19;5071192;28;20202;-70
2021/12/21 10:08:31;;;;;;;20.00;16.27;;;;;;;1.78;73.07;97143.91;5091005;28;20289;-69
2021/12/21 10:10:58;;;;;;;22.93;17.67;;;;;;;1.71;72.73;97141.69;5081393;28;20665;-70
2021/12/21 10:13:26;;;;;;;23.67;16.70;;;;;;;1.73;74.21;97140.72;5077023;28;20214;-70
2021/12/21 10:15:55;;;;;;;20.37;16.63;;;;;;;1.68;73.60;97136.63;5076408;28;20219;-69
2021/12/21 10:18:23;;;;;;;19.93;15.93;;;;;;;1.55;73.00;97139.03;5078326;28;20230;-70
2021/12/21 10:20:50;;;;;;;20.20;16.10;;;;;;;1.57;72.61;97139.78;5083661;28;20216;-70
2021/12/21 10:23:19;;;;;;;20.90;15.83;;;;;;;1.46;72.90;97142.91;5111403;28;20238;-69
2021/12/21 10:25:48;;;;;;;20.43;15.80;;;;;;;1.54;73.53;97139.94;5080912;28;20203;-69
2021/12/21 10:28:26;;;;;;;22.03;15.93;;;;;;;1.37;72.88;97143.38;5086602;28;20215;-71
2021/12/21 10:30:55;;;;;;;19.60;15.97;;;;;;;1.43;73.17;97140.47;5097787;28;20232;-67
2021/12/21 10:33:23;;;;;;;19.20;15.47;;;;;;;1.50;73.46;97138.38;5097630;28;20249;-69
2021/12/21 10:35:50;;;;;;;21.33;16.23;;;;;;;1.44;73.46;97136.09;5077472;28;20222;-70
2021/12/21 10:38:25;;;;;;;22.07;15.77;;;;;;;1.45;73.19;97129.97;5076220;28;20203;-69
2021/12/21 10:40:52;;;;;;;22.73;16.40;;;;;;;1.53;73.50;97127.81;5077613;28;20257;-68
2021/12/21 10:43:18;;;;;;;21.57;16.23;;;;;;;1.66;73.50;97121.09;5054276;28;20229;-70
2021/12/21 10:45:45;;;;;;;20.07;15.70;;;;;;;1.67;73.02;97124.50;5077573;28;20219;-68
2021/12/21 10:48:16;;;;;;;21.13;16.10;;;;;;;1.65;73.89;97123.75;5077585;28;20205;-71
2021/12/21 10:50:44;;;;;;;21.77;17.33;;;;;;;1.63;72.24;97117.78;5099710;28;20225;-69
2021/12/21 10:53:17;;;;;;;20.73;16.27;;;;;;;1.62;73.06;97114.34;5082637;28;20522;-69
2021/12/21 10:55:44;;;;;;;21.33;16.53;;;;;;;1.64;73.46;97119.44;5075202;28;20241;-68
2021/12/21 10:58:15;;;;;;;18.67;15.40;;;;;;;1.68;72.44;97121.84;5075628;28;20212;-68
2021/12/21 11:00:45;;;;;;;21.93;16.20;;;;;;;1.72;73.13;97115.56;5075636;28;20297;-69
2021/12/21 11:03:16;;;;;;;23.97;17.00;;;;;;;1.75;73.21;97123.22;5075720;28;20661;-69
2021/12/21 11:05:43;;;;;;;21.17;16.60;;;;;;;1.71;72.98;97115.63;5088007;28;20223;-70
2021/12/21 11:08:16;;;;;;;22.47;16.97;;;;;;;1.69;71.85;97113.09;5063327;28;20204;-70
2021/12/21 11:10:50;;;;;;;20.03;15.43;;;;;;;1.71;72.62;97111.25;5078632;28;20288;-71
2021/12/21 11:13:17;;;;;;;19.63;16.00;;;;;;;1.88;71.21;97111.22;5086393;28;20261;-70
2021/12/21 11:15:47;;;;;;;19.13;15.70;;;;;;;1.91;71.88;97111.06;5098457;28;20532;-69
2021/12/21 11:18:17;;;;;;;20.00;16.07;;;;;;;1.71;70.86;97106.03;5086430;28;20211;-70
2021/12/21 11:20:46;;;;;;;20.47;15.37;;;;;;;1.81;71.75;97093.38;5084540;28;20213;-70
2021/12/21 11:23:14;;;;;;;20.13;15.33;;;;;;;1.82;71.67;97098.50;5080519;28;20649;-71
2021/12/21 11:25:42;;;;;;;20.73;15.83;;;;;;;1.75;71.60;97086.72;5083632;28;20718;-68
2021/12/21 11:28:10;;;;;;;20.67;15.53;;;;;;;1.81;70.83;97096.81;5093941;28;20229;-70
2021/12/21 11:30:36;;;;;;;20.93;16.47;;;;;;;1.68;71.16;97100.97;5069867;28;20193;-70
2021/12/21 11:33:06;;;;;;;20.07;15.43;;;;;;;1.70;72.39;97091.31;5085315;28;20213;-70
2021/12/21 11:38:19;;;;;;;21.17;15.47;;;;;;;1.76;71.39;97090.16;5083018;28;20196;-69
2021/12/21 11:40:46;;;;;;;19.00;16.00;;;;;;;1.73;71.15;97095.53;5077955;28;20215;-71
2021/12/21 11:43:29;;;;;;;19.67;15.53;;;;;;;1.70;71.30;97088.69;5077782;28;20567;-69
2021/12/21 11:45:58;;;;;;;20.50;16.30;;;;;;;1.74;71.37;97087.63;5086965;28;20232;-70
2021/12/21 11:48:33;;;;;;;19.53;15.97;;;;;;;1.65;70.77;97085.50;5065203;28;20698;-70
2021/12/21 11:51:06;;;;;;;18.07;15.03;;;;;;;1.61;70.95;97076.16;5087354;28;20207;-69
2021/12/21 11:53:33;;;;;;;19.87;16.17;;;;;;;1.54;71.33;97066.94;5091533;28;20209;-70
2021/12/21 11:55:59;;;;;;;20.53;16.03;;;;;;;1.58;71.06;97068.50;5077849;28;20226;-70
2021/12/21 11:58:28;;;;;;;20.87;16.50;;;;;;;1.81;70.87;97075.13;5097869;28;20535;-71